Time;durP1;ratioP1;P1;durP2;ratioP2;P2;SDS_P1;SDS_P2;PMS_P1;PMS_P2;Temp;Humidity;BMP_temperature;BMP_pressure;BME280_temperature;BME280_humidity;BME280_pressure;Samples;Min_cycle;Max_cycle;Signal;HPM_P1;HPM_P2
2022/07/15 00:01:35;;;;;;;2.40;0.88;;;;;;;39.03;18.07;100130.06;5034552;28;20032;-74
2022/07/15 00:04:01;;;;;;;1.63;1.15;;;;;;;38.99;18.16;100124.69;5034543;28;20053;-73
2022/07/15 00:06:26;;;;;;;2.03;1.13;;;;;;;39.07;17.81;100130.22;5034495;28;20029;-73
2022/07/15 00:08:52;;;;;;;2.70;1.05;;;;;;;38.95;17.92;100115.59;5034766;28;20029;-73
2022/07/15 00:11:17;;;;;;;3.15;2.05;;;;;;;39.06;17.94;100116.75;5034018;28;20037;-74
2022/07/15 00:13:43;;;;;;;3.15;1.10;;;;;;;38.97;18.14;100115.69;5034386;28;20099;-74
2022/07/15 00:16:08;;;;;;;2.38;1.17;;;;;;;38.99;17.96;100123.94;5034561;28;20056;-74
2022/07/15 00:18:33;;;;;;;1.42;1.00;;;;;;;38.93;17.63;100123.72;5034229;28;20433;-74
2022/07/15 00:20:59;;;;;;;2.15;0.93;;;;;;;38.93;18.02;100127.44;5034372;28;20036;-74
2022/07/15 00:23:24;;;;;;;1.90;1.00;;;;;;;38.76;17.93;100119.31;5034431;28;20079;-73
2022/07/15 00:25:50;;;;;;;2.95;1.15;;;;;;;38.61;17.77;100132.13;5034482;28;20079;-78
2022/07/15 00:28:16;;;;;;;2.15;0.73;;;;;;;38.81;17.46;100129.94;5034202;28;20033;-78
2022/07/15 00:30:42;;;;;;;1.27;0.88;;;;;;;38.72;16.84;100131.09;5033991;28;20529;-79
2022/07/15 00:33:08;;;;;;;3.03;1.08;;;;;;;38.59;18.08;100135.78;5034239;28;20113;-79
2022/07/15 00:35:35;;;;;;;3.33;1.20;;;;;;;38.41;17.73;100120.91;5032959;28;20084;-79
2022/07/15 00:38:01;;;;;;;3.15;1.52;;;;;;;38.48;17.28;100153.94;5034293;28;20087;-80
2022/07/15 00:40:27;;;;;;;1.92;1.25;;;;;;;38.43;18.06;100147.81;5032541;28;20046;-79
2022/07/15 00:42:52;;;;;;;2.70;1.48;;;;;;;38.57;17.84;100156.56;5031810;28;20395;-79
2022/07/15 00:45:20;;;;;;;2.08;1.48;;;;;;;38.56;18.42;100157.25;5030591;28;20029;-80
2022/07/15 00:47:47;;;;;;;2.67;1.30;;;;;;;38.65;18.07;100156.88;5031903;28;20032;-78
2022/07/15 00:50:14;;;;;;;1.50;1.30;;;;;;;38.65;18.62;100159.09;5032316;28;20029;-78
2022/07/15 00:52:41;;;;;;;2.90;1.55;;;;;;;38.61;18.16;100165.66;5031211;28;20025;-78
2022/07/15 00:55:10;;;;;;;2.38;1.70;;;;;;;38.55;18.72;100164.66;5031086;28;20029;-79
2022/07/15 00:57:37;;;;;;;3.47;1.70;;;;;;;38.17;18.68;100160.84;5031954;28;20079;-79
2022/07/15 01:00:04;;;;;;;3.60;1.92;;;;;;;38.04;18.69;100166.28;5031421;28;20084;-79
2022/07/15 01:02:31;;;;;;;4.95;2.10;;;;;;;37.96;19.01;100177.81;5031506;28;20045;-79
2022/07/15 01:04:59;;;;;;;2.55;2.03;;;;;;;37.60;19.51;100194.06;5031674;28;20021;-79
2022/07/15 01:07:24;;;;;;;4.53;2.38;;;;;;;37.40;19.68;100193.13;5030433;28;20084;-79
2022/07/15 01:09:50;;;;;;;3.72;2.17;;;;;;;37.28;20.49;100196.31;5031607;28;20033;-79
2022/07/15 01:12:15;;;;;;;2.28;1.77;;;;;;;37.30;19.98;100199.34;5031774;28;20033;-80
2022/07/15 01:14:40;;;;;;;4.47;2.30;;;;;;;37.14;19.81;100199.41;5037010;28;20033;-80
2022/07/15 01:17:10;;;;;;;4.57;2.55;;;;;;;37.24;19.70;100196.13;5038535;28;20021;-79
2022/07/15 01:19:35;;;;;;;3.10;2.60;;;;;;;37.35;19.79;100192.16;5038391;28;20113;-78
2022/07/15 01:22:01;;;;;;;2.45;1.98;;;;;;;37.30;19.69;100198.63;5038322;28;20045;-79
2022/07/15 01:24:26;;;;;;;2.70;2.17;;;;;;;37.40;19.84;100193.13;5037989;28;20167;-79
2022/07/15 01:26:52;;;;;;;4.72;2.45;;;;;;;37.34;19.64;100199.56;5037621;28;20022;-79
2022/07/15 01:29:18;;;;;;;2.85;2.25;;;;;;;37.14;19.69;100195.66;5037365;28;20458;-78
2022/07/15 01:31:43;;;;;;;4.00;1.98;;;;;;;37.16;19.95;100192.78;5037349;28;20033;-78
2022/07/15 01:34:09;;;;;;;3.55;2.03;;;;;;;36.85;20.34;100205.41;5039183;28;20034;-78
2022/07/15 01:36:34;;;;;;;3.55;2.63;;;;;;;36.77;19.92;100211.72;5038631;28;20057;-79
2022/07/15 01:39:00;;;;;;;4.50;2.08;;;;;;;36.75;20.27;100205.69;5036612;28;20091;-78
2022/07/15 01:41:26;;;;;;;4.78;2.58;;;;;;;36.66;20.28;100217.84;5036032;28;20129;-78
2022/07/15 01:43:51;;;;;;;3.15;1.98;;;;;;;36.31;20.68;100213.13;5037168;28;20033;-79
2022/07/15 01:46:16;;;;;;;2.42;2.22;;;;;;;36.66;20.39;100218.59;5037169;28;20466;-77
2022/07/15 01:51:26;;;;;;;8.27;3.25;;;;;;;36.05;20.24;100220.69;5036223;28;20394;-77
2022/07/15 01:53:51;;;;;;;3.42;2.00;;;;;;;36.00;20.51;100201.13;5037027;28;20025;-77
2022/07/15 01:56:16;;;;;;;2.72;2.03;;;;;;;36.46;20.25;100223.53;5036885;28;20057;-78
2022/07/15 01:58:42;;;;;;;2.70;1.88;;;;;;;36.50;20.20;100223.72;5037265;28;20436;-73
2022/07/15 02:01:08;;;;;;;2.47;1.70;;;;;;;36.60;20.08;100226.44;5037178;28;20470;-76
2022/07/15 02:03:34;;;;;;;1.55;1.27;;;;;;;36.65;19.19;100216.31;5036943;28;20029;-74
2022/07/15 02:05:59;;;;;;;1.40;1.30;;;;;;;36.54;19.61;100223.94;5036851;28;20033;-74
2022/07/15 02:08:24;;;;;;;5.03;1.92;;;;;;;36.40;20.00;100238.06;5036873;28;20026;-75
2022/07/15 02:10:50;;;;;;;3.70;1.50;;;;;;;36.29;20.03;100230.06;5036593;28;20156;-74
2022/07/15 02:13:16;;;;;;;1.48;1.38;;;;;;;36.45;19.31;100239.81;5051968;28;20399;-76
2022/07/15 02:15:42;;;;;;;3.47;1.40;;;;;;;36.11;19.52;100235.06;5037020;28;20095;-76
2022/07/15 02:18:08;;;;;;;2.88;1.55;;;;;;;36.18;19.85;100228.03;5035703;28;20108;-77
2022/07/15 02:20:34;;;;;;;2.80;1.25;;;;;;;36.28;19.52;100237.44;5036658;28;20037;-79
2022/07/15 02:23:01;;;;;;;1.98;1.25;;;;;;;36.25;19.21;100239.56;5036644;28;20021;-76
2022/07/15 02:25:28;;;;;;;1.10;1.00;;;;;;;36.36;19.36;100240.84;5036384;28;20076;-80
2022/07/15 02:27:58;;;;;;;1.85;1.10;;;;;;;36.19;20.00;100244.41;5036615;28;20123;-75
2022/07/15 02:30:25;;;;;;;3.78;1.10;;;;;;;36.04;19.61;100254.75;5036461;28;20032;-76
2022/07/15 02:32:50;;;;;;;1.15;1.02;;;;;;;36.07;19.14;100246.69;5035286;28;20034;-76
2022/07/15 02:35:16;;;;;;;2.58;1.10;;;;;;;35.94;19.32;100252.00;5036111;28;20028;-76
2022/07/15 02:37:42;;;;;;;1.70;0.95;;;;;;;35.92;18.97;100257.81;5036253;28;20394;-77
2022/07/15 02:40:08;;;;;;;3.72;1.10;;;;;;;35.98;19.43;100251.44;5034678;28;20136;-77
2022/07/15 02:42:34;;;;;;;3.17;1.25;;;;;;;35.94;19.03;100257.19;5034844;28;20425;-78
2022/07/15 02:44:59;;;;;;;3.78;1.73;;;;;;;35.86;19.39;100253.78;5036044;28;20029;-77
2022/07/15 02:47:25;;;;;;;1.90;0.90;;;;;;;35.62;18.78;100256.22;5036012;28;20065;-77
2022/07/15 02:49:50;;;;;;;1.35;0.95;;;;;;;35.72;19.40;100268.63;5036014;28;20079;-76
2022/07/15 02:52:16;;;;;;;1.52;0.98;;;;;;;35.64;19.42;100261.47;5035914;28;20056;-77
2022/07/15 02:54:41;;;;;;;1.15;1.10;;;;;;;35.72;19.44;100262.69;5036048;28;20041;-77
2022/07/15 02:57:06;;;;;;;4.10;1.02;;;;;;;35.47;19.23;100262.81;5035098;28;20170;-75
2022/07/15 02:59:32;;;;;;;1.75;0.95;;;;;;;35.59;19.04;100271.56;5036022;28;20028;-74
2022/07/15 03:01:57;;;;;;;1.42;0.88;;;;;;;35.46;19.42;100276.06;5035922;28;20033;-74
2022/07/15 03:04:22;;;;;;;3.28;1.45;;;;;;;35.56;19.33;100279.59;5036074;28;20445;-74
2022/07/15 03:06:48;;;;;;;1.25;0.90;;;;;;;35.68;18.91;100283.22;5035740;28;20029;-74
2022/07/15 03:09:13;;;;;;;5.03;0.90;;;;;;;35.53;18.89;100289.78;5035541;28;20104;-74
2022/07/15 03:11:39;;;;;;;3.10;0.90;;;;;;;35.47;18.68;100296.16;5035445;28;20036;-74
2022/07/15 03:14:04;;;;;;;3.28;0.90;;;;;;;35.66;19.32;100291.25;5035768;28;20117;-75
2022/07/15 03:16:29;;;;;;;1.15;0.88;;;;;;;35.72;19.18;100301.22;5035667;28;20536;-75
2022/07/15 03:18:55;;;;;;;0.77;0.77;;;;;;;35.84;18.49;100301.13;5034328;28;20021;-76
2022/07/15 03:21:21;;;;;;;2.75;1.20;;;;;;;35.61;18.89;100308.03;5035545;28;20100;-73
2022/07/15 03:23:47;;;;;;;2.03;1.00;;;;;;;35.43;19.24;100309.97;5035282;28;20079;-74
2022/07/15 03:26:12;;;;;;;0.85;0.68;;;;;;;35.51;19.34;100310.44;5035571;28;20022;-74
2022/07/15 03:28:37;;;;;;;1.13;0.82;;;;;;;35.63;19.43;100314.06;5035378;28;20029;-74
2022/07/15 03:31:03;;;;;;;1.92;1.10;;;;;;;35.81;19.25;100318.06;5035386;28;20087;-75
2022/07/15 03:33:28;;;;;;;1.83;0.95;;;;;;;35.81;19.04;100318.06;5035226;28;20471;-76
2022/07/15 03:35:54;;;;;;;2.53;0.50;;;;;;;35.80;18.63;100313.56;5035146;28;20389;-74
2022/07/15 03:38:19;;;;;;;1.38;0.70;;;;;;;35.83;18.85;100335.94;5035059;28;20473;-73
2022/07/15 03:40:46;;;;;;;2.45;1.08;;;;;;;35.70;19.20;100327.06;5034587;28;20045;-74
2022/07/15 03:43:13;;;;;;;7.40;1.52;;;;;;;35.75;18.87;100335.50;5035112;28;20038;-76
2022/07/15 03:45:40;;;;;;;0.80;0.65;;;;;;;35.77;18.75;100325.97;5033367;28;20493;-75
2022/07/15 03:48:08;;;;;;;7.85;1.30;;;;;;;35.87;18.74;100326.50;5034899;28;20466;-73
2022/07/15 03:50:35;;;;;;;2.30;0.93;;;;;;;35.84;18.91;100337.50;5034981;28;20108;-73
2022/07/15 03:53:01;;;;;;;1.42;0.90;;;;;;;35.88;18.87;100343.63;5034473;28;20422;-76
2022/07/15 03:55:27;;;;;;;1.13;0.70;;;;;;;35.40;18.71;100343.91;5034754;28;20363;-73
2022/07/15 03:57:55;;;;;;;2.72;0.68;;;;;;;35.63;18.64;100343.69;5033725;28;20036;-72
2022/07/15 04:00:22;;;;;;;0.80;0.50;;;;;;;35.87;18.21;100348.03;5034714;28;20029;-76
2022/07/15 04:02:50;;;;;;;2.50;1.10;;;;;;;35.56;19.12;100347.78;5035322;28;20439;-75
2022/07/15 04:05:16;;;;;;;2.63;0.73;;;;;;;35.72;18.71;100351.66;5034789;28;20101;-74
2022/07/15 04:07:42;;;;;;;2.55;0.85;;;;;;;35.89;18.46;100339.25;5034504;28;20025;-73
2022/07/15 04:10:10;;;;;;;2.92;1.25;;;;;;;35.99;18.10;100350.88;5034964;28;20064;-72
2022/07/15 04:12:37;;;;;;;2.13;1.00;;;;;;;35.97;18.54;100350.03;5034285;28;20371;-73
2022/07/15 04:15:14;;;;;;;4.72;1.08;;;;;;;35.94;18.27;100361.75;5034426;28;20029;-72
2022/07/15 04:17:41;;;;;;;8.15;1.00;;;;;;;35.99;18.08;100356.03;5034693;28;20021;-73
2022/07/15 04:20:09;;;;;;;1.83;0.82;;;;;;;35.91;17.47;100354.19;5033101;28;20474;-73
2022/07/15 04:22:42;;;;;;;2.72;0.70;;;;;;;36.07;17.81;100368.34;5033311;28;20375;-76
2022/07/15 04:25:09;;;;;;;1.65;0.93;;;;;;;36.14;18.13;100365.09;5034717;28;20040;-76
2022/07/15 04:27:35;;;;;;;3.00;1.20;;;;;;;36.26;17.77;100364.97;5033129;28;20390;-73
2022/07/15 04:30:03;;;;;;;2.03;0.88;;;;;;;36.45;18.13;100369.66;5032887;28;20048;-72
2022/07/15 04:32:30;;;;;;;2.28;0.85;;;;;;;36.41;17.66;100369.44;5032718;28;20034;-73
2022/07/15 04:34:56;;;;;;;7.93;1.05;;;;;;;35.99;18.12;100361.97;5034031;28;20097;-76
2022/07/15 04:37:21;;;;;;;1.90;0.60;;;;;;;36.00;18.27;100378.34;5034257;28;20033;-76
2022/07/15 04:39:48;;;;;;;2.65;1.30;;;;;;;35.88;18.12;100385.16;5033564;28;20049;-76
2022/07/15 04:42:15;;;;;;;3.55;0.80;;;;;;;36.30;17.69;100380.78;5033906;28;20497;-74
2022/07/15 04:44:42;;;;;;;1.55;0.88;;;;;;;36.30;17.69;100380.78;5033857;28;20025;-78
2022/07/15 04:47:16;;;;;;;2.67;0.80;;;;;;;36.35;17.46;100390.66;5016046;28;20084;-78
2022/07/15 04:52:27;;;;;;;4.13;1.00;;;;;;;36.53;17.01;100393.81;5018950;28;20564;-73
2022/07/15 04:54:53;;;;;;;3.00;0.80;;;;;;;36.59;17.10;100388.97;5033787;28;20044;-80
2022/07/15 04:57:20;;;;;;;3.70;1.77;;;;;;;36.48;16.78;100398.00;5031829;28;20482;-76
2022/07/15 04:59:46;;;;;;;3.88;0.98;;;;;;;36.59;17.56;100397.88;5041905;28;20045;-79
2022/07/15 05:02:13;;;;;;;14.55;1.55;;;;;;;36.47;16.76;100399.44;5033650;28;20109;-77
2022/07/15 05:04:42;;;;;;;4.43;1.42;;;;;;;35.65;17.52;100406.09;5032237;28;20463;-77
2022/07/15 05:07:07;;;;;;;4.20;1.20;;;;;;;36.04;17.12;100417.91;5032251;28;20482;-78
2022/07/15 05:09:33;;;;;;;8.57;2.65;;;;;;;36.60;17.26;100407.56;5032321;28;20043;-76
2022/07/15 05:11:59;;;;;;;5.57;1.05;;;;;;;36.71;16.79;100416.34;5032216;28;20060;-75
2022/07/15 05:14:24;;;;;;;3.08;0.52;;;;;;;36.98;16.90;100414.72;5015932;28;20037;-75
2022/07/15 05:16:51;;;;;;;2.78;1.10;;;;;;;36.81;16.95;100427.22;5032432;28;20486;-76
2022/07/15 05:19:16;;;;;;;3.38;1.05;;;;;;;37.07;16.62;100413.69;5032228;28;20108;-72
2022/07/15 05:21:43;;;;;;;3.22;1.08;;;;;;;36.93;16.86;100421.91;5033767;28;20541;-75
2022/07/15 05:24:08;;;;;;;1.90;0.88;;;;;;;37.03;16.58;100417.22;5033971;28;20087;-75
2022/07/15 05:26:35;;;;;;;12.57;2.40;;;;;;;36.90;17.60;100438.88;5033262;28;20041;-76
2022/07/15 05:29:01;;;;;;;6.68;1.05;;;;;;;37.10;16.45;100433.94;5032285;28;20045;-76
2022/07/15 05:31:29;;;;;;;18.08;2.03;;;;;;;37.34;16.47;100425.50;5033792;28;20490;-74
2022/07/15 05:34:03;;;;;;;8.07;1.13;;;;;;;37.74;16.17;100435.66;5033680;28;20053;-76
2022/07/15 05:36:29;;;;;;;7.10;0.90;;;;;;;37.63;15.73;100432.84;5028570;28;20053;-76
2022/07/15 05:38:55;;;;;;;2.10;0.65;;;;;;;37.80;15.35;100438.88;5033817;28;20108;-76
2022/07/15 05:41:20;;;;;;;7.00;1.10;;;;;;;37.84;15.59;100436.13;5032708;28;20436;-78
2022/07/15 05:43:48;;;;;;;7.95;2.28;;;;;;;37.54;15.02;100429.50;5033040;28;20030;-77
2022/07/15 05:46:13;;;;;;;5.68;0.82;;;;;;;37.79;15.83;100430.66;5031464;28;20044;-75
2022/07/15 05:48:40;;;;;;;6.07;0.70;;;;;;;37.49;15.42;100435.88;5029468;28;20372;-76
2022/07/15 05:51:06;;;;;;;1.83;1.27;;;;;;;37.18;16.04;100439.53;5029238;28;20021;-76
2022/07/15 05:53:32;;;;;;;3.28;1.35;;;;;;;37.27;16.03;100443.69;5029258;28;20240;-75
2022/07/15 05:55:58;;;;;;;0.80;0.40;;;;;;;37.35;15.84;100453.03;5027930;28;20461;-76
2022/07/15 05:58:24;;;;;;;11.25;1.00;;;;;;;37.59;16.06;100446.09;5029248;28;20116;-77
2022/07/15 06:00:52;;;;;;;1.08;0.57;;;;;;;38.18;14.78;100451.88;5029163;28;20029;-76
2022/07/15 06:03:18;;;;;;;4.95;1.00;;;;;;;39.67;14.71;100448.69;5031129;28;20022;-77
2022/07/15 06:05:43;;;;;;;3.35;0.73;;;;;;;43.74;12.64;100422.78;5032229;28;20485;-73
2022/07/15 06:08:10;;;;;;;3.78;0.93;;;;;;;47.58;9.98;100424.06;5034708;28;20035;-73
2022/07/15 06:10:36;;;;;;;4.90;0.68;;;;;;;48.62;7.47;100417.00;5036617;28;20126;-72
2022/07/15 06:13:01;;;;;;;5.53;1.55;;;;;;;49.76;7.55;100395.81;5036477;28;20053;-72
2022/07/15 06:15:27;;;;;;;3.92;0.60;;;;;;;51.21;5.90;100415.47;5036754;28;20470;-72
2022/07/15 06:17:53;;;;;;;2.78;0.60;;;;;;;53.40;6.24;100394.97;5036700;28;20025;-72
2022/07/15 06:20:19;;;;;;;7.47;0.80;;;;;;;55.57;5.34;100386.88;5036612;28;20064;-72
2022/07/15 06:22:45;;;;;;;7.40;0.80;;;;;;;54.81;4.32;100408.75;5036276;28;20021;-72
2022/07/15 06:25:11;;;;;;;1.98;0.43;;;;;;;54.79;4.78;100391.22;5036271;28;20033;-72
2022/07/15 06:27:36;;;;;;;2.88;1.58;;;;;;;55.45;4.61;100400.22;5036317;28;20091;-71
2022/07/15 06:30:02;;;;;;;5.10;0.55;;;;;;;56.58;5.10;100396.09;5035889;28;20025;-72
2022/07/15 06:32:28;;;;;;;15.35;1.35;;;;;;;58.71;2.60;100383.59;5035056;28;20057;-72
2022/07/15 06:34:54;;;;;;;3.72;0.63;;;;;;;56.69;4.38;100382.72;5036435;28;20513;-72
2022/07/15 06:37:19;;;;;;;7.70;1.13;;;;;;;53.80;4.28;100397.25;5036121;28;20029;-72
2022/07/15 06:39:45;;;;;;;1.42;0.38;;;;;;;52.30;4.88;100395.25;5036047;28;20049;-72
2022/07/15 06:42:10;;;;;;;4.55;0.60;;;;;;;51.64;4.78;100404.41;5036236;28;20441;-72
2022/07/15 06:44:36;;;;;;;7.88;1.13;;;;;;;52.15;6.21;100391.66;5051354;28;20441;-72
2022/07/15 06:47:02;;;;;;;2.25;0.63;;;;;;;53.23;5.16;100396.81;5035943;28;20033;-72
2022/07/15 06:49:28;;;;;;;0.85;0.30;;;;;;;55.53;4.65;100385.44;5034559;28;20100;-72
2022/07/15 06:51:54;;;;;;;2.33;0.60;;;;;;;52.59;4.94;100391.00;5035796;28;20168;-72
2022/07/15 06:54:19;;;;;;;2.90;0.60;;;;;;;53.15;5.40;100388.56;5035696;28;20394;-72
2022/07/15 06:56:44;;;;;;;9.50;0.70;;;;;;;54.57;5.31;100394.81;5036018;28;20100;-72
2022/07/15 06:59:10;;;;;;;8.07;0.90;;;;;;;55.50;4.30;100384.03;5035843;28;20494;-72
2022/07/15 07:01:36;;;;;;;2.28;0.85;;;;;;;56.30;3.81;100397.75;5035680;28;20467;-72
2022/07/15 07:04:02;;;;;;;8.82;1.05;;;;;;;57.23;3.58;100403.88;5035338;28;20021;-72
2022/07/15 07:06:27;;;;;;;2.55;0.60;;;;;;;57.14;3.69;100385.00;5035527;28;20545;-72
2022/07/15 07:08:53;;;;;;;8.55;0.88;;;;;;;57.97;3.94;100394.22;5035140;28;20410;-72
2022/07/15 07:11:19;;;;;;;3.38;0.60;;;;;;;57.22;3.43;100393.16;5035495;28;20429;-72
2022/07/15 07:13:45;;;;;;;6.18;1.08;;;;;;;57.94;3.20;100386.66;5034980;28;20052;-74
2022/07/15 07:16:11;;;;;;;4.70;0.70;;;;;;;58.18;3.21;100394.16;5034935;28;20021;-74
2022/07/15 07:18:37;;;;;;;4.10;1.20;;;;;;;59.26;3.16;100395.88;5028444;28;20377;-73
2022/07/15 07:21:02;;;;;;;4.88;0.77;;;;;;;60.91;2.31;100390.25;5035046;28;20021;-74
2022/07/15 07:23:29;;;;;;;1.90;0.63;;;;;;;61.90;2.06;100384.94;5035398;28;20497;-74
2022/07/15 07:25:55;;;;;;;6.05;1.17;;;;;;;59.76;2.20;100393.53;5034930;28;20022;-74
2022/07/15 07:28:21;;;;;;;10.52;2.22;;;;;;;57.49;2.68;100380.69;5035026;28;20075;-72
2022/07/15 07:30:46;;;;;;;27.08;1.75;;;;;;;54.87;4.40;100394.06;5034974;28;20030;-72
2022/07/15 07:33:12;;;;;;;5.82;1.02;;;;;;;55.12;4.95;100394.22;5034926;28;20029;-72
2022/07/15 07:35:38;;;;;;;5.60;1.00;;;;;;;56.48;3.67;100393.34;5033689;28;20047;-72
2022/07/15 07:38:03;;;;;;;2.63;0.80;;;;;;;57.54;3.63;100376.66;5034905;28;20108;-74
2022/07/15 07:40:29;;;;;;;4.68;1.38;;;;;;;56.27;4.21;100390.94;5033575;28;20510;-75
2022/07/15 07:42:56;;;;;;;2.22;0.60;;;;;;;56.41;4.89;100392.78;5034494;28;20018;-74
2022/07/15 07:45:24;;;;;;;2.95;0.90;;;;;;;56.70;3.33;100396.44;5034858;28;20025;-72
2022/07/15 07:47:50;;;;;;;3.90;0.73;;;;;;;54.83;3.81;100397.22;5034821;28;20355;-68
2022/07/15 07:50:15;;;;;;;3.47;0.47;;;;;;;56.20;4.10;100385.81;5034744;28;20095;-70
2022/07/15 07:52:42;;;;;;;15.27;2.33;;;;;;;58.20;3.20;100378.75;5034452;28;20033;-70
2022/07/15 07:55:08;;;;;;;3.55;0.68;;;;;;;60.48;2.57;100382.44;5034584;28;20025;-69
2022/07/15 07:57:34;;;;;;;2.65;0.80;;;;;;;62.77;1.19;100382.25;5033928;28;20031;-69
2022/07/15 08:00:00;;;;;;;1.35;0.43;;;;;;;64.10;0.98;100382.41;5033559;28;20033;-71
2022/07/15 08:02:26;;;;;;;1.15;0.63;;;;;;;62.78;0.87;100378.28;5034123;28;20021;-70
2022/07/15 08:04:51;;;;;;;1.42;0.40;;;;;;;61.32;1.82;100372.72;5034055;28;20029;-70
2022/07/15 08:07:17;;;;;;;4.80;1.25;;;;;;;57.25;2.81;100382.31;5033894;28;20021;-70
2022/07/15 08:09:42;;;;;;;7.05;1.30;;;;;;;52.58;5.07;100386.47;5034125;28;20116;-69
2022/07/15 08:12:08;;;;;;;2.15;0.40;;;;;;;53.96;5.12;100387.00;5034222;28;20082;-69
2022/07/15 08:14:33;;;;;;;5.30;0.85;;;;;;;56.95;3.87;100389.50;5034157;28;20087;-70
2022/07/15 08:16:59;;;;;;;12.40;1.33;;;;;;;58.61;2.39;100370.94;5033956;28;20033;-70
2022/07/15 08:19:24;;;;;;;2.33;0.50;;;;;;;59.05;1.86;100386.78;5034132;28;20040;-70
2022/07/15 08:21:51;;;;;;;1.98;0.43;;;;;;;58.69;2.36;100370.63;5033879;28;20025;-70
2022/07/15 08:24:17;;;;;;;3.45;0.45;;;;;;;58.14;2.94;100378.97;5033960;28;20033;-70
2022/07/15 08:26:42;;;;;;;1.67;0.57;;;;;;;53.89;3.86;100382.56;5034252;28;20528;-71
2022/07/15 08:29:08;;;;;;;1.65;0.20;;;;;;;55.12;2.81;100387.38;5032717;28;20025;-71
2022/07/15 08:31:35;;;;;;;1.60;0.50;;;;;;;56.06;2.45;100373.97;5033726;28;20021;-71
2022/07/15 08:34:01;;;;;;;8.02;1.20;;;;;;;53.52;3.82;100387.91;5032388;28;20096;-70
2022/07/15 08:36:27;;;;;;;7.32;0.90;;;;;;;52.11;4.53;100377.22;5034029;28;20429;-70
2022/07/15 08:38:53;;;;;;;2.78;0.68;;;;;;;49.70;5.56;100406.41;5033715;28;20489;-70
2022/07/15 08:41:18;;;;;;;2.90;0.70;;;;;;;49.23;5.88;100417.09;5033578;28;20049;-70
2022/07/15 08:43:44;;;;;;;4.55;0.40;;;;;;;46.93;7.18;100414.50;5033999;28;20037;-70
2022/07/15 08:46:10;;;;;;;4.38;0.90;;;;;;;44.64;9.16;100425.44;5033844;28;20383;-70
2022/07/15 08:48:37;;;;;;;4.00;0.82;;;;;;;46.11;8.29;100426.34;5033289;28;20463;-70
2022/07/15 08:51:07;;;;;;;2.60;0.85;;;;;;;47.04;7.49;100418.34;5033127;28;20040;-70
2022/07/15 08:53:33;;;;;;;4.97;0.60;;;;;;;47.11;8.08;100416.91;5033136;28;20044;-70
2022/07/15 08:56:00;;;;;;;21.45;1.73;;;;;;;47.15;7.54;100422.97;5032089;28;20116;-69
2022/07/15 08:58:26;;;;;;;3.90;0.85;;;;;;;47.93;7.35;100419.00;5033532;28;20104;-70
2022/07/15 09:00:51;;;;;;;1.25;0.57;;;;;;;47.70;7.27;100421.16;5033808;28;20481;-69
2022/07/15 09:03:17;;;;;;;6.07;0.85;;;;;;;46.39;7.72;100423.69;5033151;28;20021;-70
2022/07/15 09:05:42;;;;;;;6.22;1.20;;;;;;;45.96;8.36;100435.22;5033307;28;20108;-70
2022/07/15 09:08:14;;;;;;;6.25;0.60;;;;;;;45.47;7.50;100448.78;5033669;28;20021;-69
2022/07/15 09:10:43;;;;;;;;;;;;;;;45.48;7.69;100429.22;5026424;28;20108;-69
2022/07/15 09:13:10;;;;;;;2.60;0.50;;;;;;;45.00;7.73;100443.44;5013456;28;20366;-69
2022/07/15 09:15:38;;;;;;;2.33;0.52;;;;;;;44.54;8.11;100447.06;5013690;28;20421;-71
2022/07/15 09:18:08;;;;;;;2.20;0.63;;;;;;;44.44;8.67;100458.13;5013217;28;20089;-69
2022/07/15 09:20:35;;;;;;;1.92;0.60;;;;;;;43.77;9.05;100457.38;5013665;28;20523;-70
2022/07/15 09:23:01;;;;;;;5.38;1.10;;;;;;;44.43;9.11;100451.34;5013390;28;20108;-70
2022/07/15 09:25:27;;;;;;;4.32;1.00;;;;;;;45.05;8.75;100442.78;5013403;28;20057;-71
2022/07/15 09:27:53;;;;;;;8.98;0.77;;;;;;;44.69;8.84;100451.91;5027920;28;20040;-69
2022/07/15 09:36:13;;;;;;;14.18;1.17;;;;;;;41.92;9.73;100447.84;5033132;28;20118;-67
2022/07/15 09:38:50;;;;;;;5.75;0.95;;;;;;;41.92;9.88;100462.81;5033326;28;20087;-80
2022/07/15 09:41:36;;;;;;;11.45;1.00;;;;;;;42.59;9.31;100461.78;5033044;28;20053;-81
2022/07/15 09:44:21;;;;;;;2.70;0.40;;;;;;;43.58;9.41;100463.69;5036797;28;20116;-79
2022/07/15 09:46:51;;;;;;;5.00;0.80;;;;;;;44.04;9.20;100449.75;5052658;28;20034;-80
2022/07/15 09:49:32;;;;;;;2.85;0.35;;;;;;;44.60;8.53;100446.44;5035622;28;20025;-80
2022/07/15 09:52:01;;;;;;;36.10;4.50;;;;;;;44.84;8.88;100443.13;5037093;28;20021;-80
2022/07/15 09:54:32;;;;;;;7.75;0.73;;;;;;;45.38;7.99;100440.31;5037078;28;20041;-79
2022/07/15 09:57:00;;;;;;;7.07;0.93;;;;;;;45.69;7.75;100445.34;5037098;28;20021;-80
2022/07/15 09:59:27;;;;;;;10.52;1.13;;;;;;;45.77;7.41;100441.69;5036635;28;20382;-80
2022/07/15 10:01:52;;;;;;;4.90;1.15;;;;;;;45.51;7.45;100442.06;5037158;28;20030;-80
2022/07/15 10:04:20;;;;;;;13.45;0.98;;;;;;;45.27;7.63;100445.41;5036573;28;20052;-80
2022/07/15 10:06:50;;;;;;;6.32;1.00;;;;;;;45.22;7.62;100446.06;5036475;28;20459;-79
2022/07/15 10:09:24;;;;;;;8.27;0.95;;;;;;;45.02;7.36;100447.25;5035986;28;20500;-81
2022/07/15 10:11:52;;;;;;;1.27;0.40;;;;;;;44.83;7.45;100442.38;5036525;28;20037;-80
2022/07/15 10:14:36;;;;;;;11.55;1.85;;;;;;;44.55;7.47;100441.81;5035073;28;20041;-79
2022/07/15 10:17:27;;;;;;;4.40;0.70;;;;;;;44.38;8.10;100458.75;5036666;28;20604;-82
2022/07/15 10:20:11;;;;;;;4.78;0.77;;;;;;;44.42;7.70;100461.84;5037123;28;20467;-79
2022/07/15 10:23:07;;;;;;;7.80;0.68;;;;;;;44.16;8.03;100456.00;5037589;28;20087;-83
2022/07/15 10:25:57;;;;;;;3.30;0.40;;;;;;;44.28;7.83;100461.56;5036409;28;20029;-76
2022/07/15 10:28:33;;;;;;;2.58;0.68;;;;;;;44.29;7.67;100463.09;5036332;28;20087;-76
2022/07/15 10:31:18;;;;;;;6.47;0.60;;;;;;;44.65;7.92;100457.81;5034975;28;20041;-76
2022/07/15 10:34:05;;;;;;;1.35;0.90;;;;;;;44.60;7.96;100450.19;5036115;28;20395;-77
2022/07/15 10:36:47;;;;;;;3.35;0.50;;;;;;;44.33;8.41;100450.38;5036334;28;20435;-75
2022/07/15 10:39:16;;;;;;;33.22;3.15;;;;;;;44.34;8.17;100451.91;5035768;28;20035;-77
2022/07/15 10:41:50;;;;;;;5.55;1.25;;;;;;;44.28;8.46;100455.56;5035948;28;20517;-77
2022/07/15 10:44:16;;;;;;;14.07;2.03;;;;;;;44.72;7.87;100458.69;5036096;28;20026;-79
2022/07/15 10:46:42;;;;;;;6.10;1.02;;;;;;;44.98;8.20;100441.16;5035795;28;20024;-77
2022/07/15 10:49:08;;;;;;;9.57;0.98;;;;;;;44.29;8.10;100451.06;5036108;28;20025;-79
2022/07/15 10:51:40;;;;;;;4.28;0.30;;;;;;;43.81;8.52;100451.50;5035603;28;20051;-77
2022/07/15 10:54:06;;;;;;;;;;;;;;;44.37;7.68;100456.47;5033801;28;20087;-77
2022/07/15 10:56:34;;;;;;;1.58;0.63;;;;;;;44.13;8.37;100445.44;5035971;28;19909;-80
2022/07/15 10:59:11;;;;;;;8.23;1.05;;;;;;;43.93;8.14;100456.25;5035706;28;20026;-78
2022/07/15 11:01:38;;;;;;;1.20;0.40;;;;;;;44.12;8.33;100458.94;5035533;28;20029;-74
2022/07/15 11:04:19;;;;;;;4.85;0.80;;;;;;;44.13;8.00;100454.47;5033329;28;20083;-73
2022/07/15 11:07:20;;;;;;;5.78;0.70;;;;;;;43.99;7.89;100457.16;5033225;28;20031;-77
2022/07/15 11:09:55;;;;;;;18.55;1.60;;;;;;;43.48;8.41;100458.19;4977823;28;20085;-77
2022/07/15 11:12:30;;;;;;;5.85;1.77;;;;;;;43.94;8.19;100464.56;5025942;28;20038;-75
2022/07/15 11:15:11;;;;;;;1.92;0.80;;;;;;;43.93;8.73;100465.28;5035425;28;20091;-77
2022/07/15 11:17:42;;;;;;;6.97;0.80;;;;;;;44.41;8.09;100466.31;5035495;28;20421;-73
2022/07/15 11:20:10;;;;;;;12.63;2.15;;;;;;;44.52;8.21;100458.28;5035584;28;20049;-78
2022/07/15 11:22:41;;;;;;;0.95;0.40;;;;;;;44.60;8.06;100453.22;5035170;28;20033;-75
2022/07/15 11:25:15;;;;;;;0.45;0.40;;;;;;;44.72;8.01;100461.72;5033764;28;20033;-73
2022/07/15 11:27:41;;;;;;;3.92;0.75;;;;;;;44.27;8.04;100472.06;5035361;28;20041;-76
2022/07/15 11:30:07;;;;;;;3.38;0.65;;;;;;;43.96;8.74;100449.59;5017500;28;20029;-74
2022/07/15 11:32:33;;;;;;;1.27;0.40;;;;;;;44.16;8.10;100449.28;5034409;28;20359;-74
2022/07/15 11:35:02;;;;;;;15.55;1.33;;;;;;;44.11;8.48;100454.41;5035220;28;20026;-73
2022/07/15 11:37:36;;;;;;;2.97;0.80;;;;;;;43.76;8.54;100458.88;5033389;28;20035;-76
2022/07/15 11:44:29;;;;;;;4.32;0.88;;;;;;;43.99;8.57;100450.38;5035168;28;20047;-72
2022/07/15 11:45:46;;;;;;;6.53;0.70;;;;;;;43.32;8.49;100430.78;5034179;28;20037;-76